Time;durP1;ratioP1;P1;durP2;ratioP2;P2;SDS_P1;SDS_P2;PMS_P1;PMS_P2;Temp;Humidity;BMP_temperature;BMP_pressure;BME280_temperature;BME280_humidity;BME280_pressure;Samples;Min_cycle;Max_cycle;Signal;HPM_P1;HPM_P2
2022/01/05 00:00:47;;;;;;;8.23;1.90;;;5.80;77.30;;;;;;5045424;28;20388;-76
2022/01/05 00:03:13;;;;;;;5.50;1.52;;;5.70;77.00;;;;;;5036150;28;20482;-74
2022/01/05 00:05:39;;;;;;;10.40;1.80;;;5.70;77.20;;;;;;5050600;28;20025;-74
2022/01/05 00:08:04;;;;;;;6.45;1.60;;;5.70;77.10;;;;;;5052032;28;20423;-74
2022/01/05 00:10:30;;;;;;;7.78;1.50;;;5.70;76.90;;;;;;5033760;28;20419;-74
2022/01/05 00:12:56;;;;;;;9.02;1.63;;;5.60;76.90;;;;;;5052338;28;20033;-74
2022/01/05 00:15:22;;;;;;;9.43;1.85;;;5.60;76.80;;;;;;5052117;28;20040;-74
2022/01/05 00:17:47;;;;;;;3.97;1.27;;;5.60;76.90;;;;;;5044250;28;20033;-74
2022/01/05 00:20:13;;;;;;;6.15;1.45;;;5.60;77.00;;;;;;5052357;28;20087;-75
2022/01/05 00:22:39;;;;;;;5.38;1.83;;;5.60;76.90;;;;;;5044348;28;20045;-75
2022/01/05 00:25:06;;;;;;;6.10;1.45;;;5.60;77.00;;;;;;5045472;28;20112;-75
2022/01/05 00:27:31;;;;;;;9.35;1.55;;;5.60;77.00;;;;;;5045909;28;20930;-74
2022/01/05 00:29:58;;;;;;;8.13;2.33;;;5.60;77.00;;;;;;5046253;28;20033;-74
2022/01/05 00:32:24;;;;;;;8.27;1.88;;;5.60;77.00;;;;;;5052289;28;20032;-74
2022/01/05 00:34:52;;;;;;;8.75;1.58;;;5.50;76.80;;;;;;5035307;28;20039;-74
2022/01/05 00:37:18;;;;;;;6.55;1.48;;;5.50;77.00;;;;;;5065808;28;20499;-74
2022/01/05 00:39:44;;;;;;;8.30;1.85;;;5.40;77.10;;;;;;5052418;28;20067;-74
2022/01/05 00:42:10;;;;;;;10.60;3.05;;;5.40;77.00;;;;;;5038552;28;20060;-74
2022/01/05 00:44:35;;;;;;;7.05;1.50;;;5.40;76.90;;;;;;5055085;28;20076;-74
2022/01/05 00:47:01;;;;;;;11.23;2.55;;;5.40;77.00;;;;;;5059456;28;20028;-74
2022/01/05 00:49:27;;;;;;;10.30;2.00;;;5.30;77.10;;;;;;5037852;28;20037;-75
2022/01/05 00:51:53;;;;;;;7.97;1.38;;;5.30;77.10;;;;;;5051052;28;20025;-76
2022/01/05 00:54:18;;;;;;;18.58;2.47;;;5.30;77.10;;;;;;5043643;28;20525;-76
2022/01/05 00:56:44;;;;;;;14.10;2.00;;;5.20;77.10;;;;;;5035899;28;20643;-76
2022/01/05 00:59:10;;;;;;;12.82;2.40;;;5.20;77.10;;;;;;5035987;28;20104;-76
2022/01/05 01:01:36;;;;;;;6.38;1.70;;;5.20;77.20;;;;;;5040637;28;20040;-76
2022/01/05 01:04:03;;;;;;;10.32;2.10;;;5.20;77.20;;;;;;5043873;28;20025;-76
2022/01/05 01:06:28;;;;;;;12.15;1.90;;;5.20;77.20;;;;;;5023907;28;20049;-75
2022/01/05 01:08:54;;;;;;;6.63;2.08;;;5.20;77.00;;;;;;5029140;28;20844;-75
2022/01/05 01:11:20;;;;;;;7.68;2.08;;;5.20;76.90;;;;;;5051422;28;20319;-75
2022/01/05 01:13:45;;;;;;;9.65;1.58;;;5.10;76.90;;;;;;5036107;28;20115;-75
2022/01/05 01:16:11;;;;;;;9.80;1.80;;;5.10;76.80;;;;;;5037635;28;20380;-75
2022/01/05 01:18:37;;;;;;;7.60;1.67;;;5.10;77.20;;;;;;5031378;28;20025;-74
2022/01/05 01:21:03;;;;;;;9.95;1.67;;;5.10;76.60;;;;;;5051856;28;20439;-75
2022/01/05 01:23:29;;;;;;;14.85;5.00;;;5.10;76.50;;;;;;5051972;28;20036;-75
2022/01/05 01:25:55;;;;;;;9.15;1.70;;;5.10;76.30;;;;;;5050556;28;20391;-74
2022/01/05 01:28:21;;;;;;;10.93;1.55;;;5.00;76.30;;;;;;5050540;28;20025;-74
2022/01/05 01:30:48;;;;;;;8.05;1.83;;;5.00;76.40;;;;;;5050329;28;20029;-74
2022/01/05 01:33:14;;;;;;;6.60;1.50;;;5.00;76.40;;;;;;5037173;28;20098;-74
2022/01/05 01:35:39;;;;;;;10.35;1.77;;;5.00;76.50;;;;;;5050962;28;20483;-74
2022/01/05 01:38:05;;;;;;;10.65;2.40;;;5.00;76.40;;;;;;5046436;28;20029;-74
2022/01/05 01:40:32;;;;;;;14.68;2.20;;;5.00;76.40;;;;;;5031519;28;20059;-74
2022/01/05 01:42:58;;;;;;;7.38;1.95;;;5.00;76.20;;;;;;5045643;28;20071;-75
2022/01/05 01:45:24;;;;;;;11.13;2.33;;;5.00;76.10;;;;;;5043572;28;20061;-75
2022/01/05 01:47:50;;;;;;;12.32;2.50;;;5.00;76.30;;;;;;5040141;28;20030;-75
2022/01/05 01:50:15;;;;;;;7.93;1.60;;;5.00;76.30;;;;;;5047712;28;20476;-75
2022/01/05 01:52:41;;;;;;;10.55;2.20;;;5.00;76.20;;;;;;5042346;28;20044;-75
2022/01/05 01:55:10;;;;;;;7.43;1.80;;;4.90;76.10;;;;;;5045395;28;20052;-76
2022/01/05 01:57:38;;;;;;;12.65;2.08;;;4.90;76.10;;;;;;5053968;28;20036;-76
2022/01/05 02:00:10;;;;;;;9.43;1.60;;;4.90;76.30;;;;;;5053472;28;20024;-76
2022/01/05 02:02:37;;;;;;;11.05;1.80;;;4.90;76.20;;;;;;5052889;28;20029;-76
2022/01/05 02:05:04;;;;;;;12.18;1.80;;;4.80;76.20;;;;;;5053666;28;20499;-76
2022/01/05 02:07:29;;;;;;;10.55;1.90;;;4.80;76.10;;;;;;5054112;28;20035;-76
2022/01/05 02:09:55;;;;;;;7.07;1.60;;;4.80;76.30;;;;;;5054281;28;20045;-77
2022/01/05 02:12:26;;;;;;;8.98;1.73;;;4.80;76.40;;;;;;5059110;28;20032;-77
2022/01/05 02:14:54;;;;;;;9.88;1.83;;;4.80;76.40;;;;;;5058881;28;20051;-77
2022/01/05 02:17:24;;;;;;;10.13;1.88;;;4.80;76.40;;;;;;5062355;28;20490;-75
2022/01/05 02:19:50;;;;;;;11.57;1.88;;;4.70;76.40;;;;;;5059294;28;20407;-77
2022/01/05 02:22:16;;;;;;;9.90;1.83;;;4.70;76.50;;;;;;5064453;28;20047;-76
2022/01/05 02:24:46;;;;;;;10.20;1.80;;;4.70;76.40;;;;;;5066159;28;20060;-75
2022/01/05 02:27:13;;;;;;;11.32;2.90;;;4.70;76.40;;;;;;5048916;28;20080;-75
2022/01/05 02:29:39;;;;;;;8.20;2.05;;;4.60;76.50;;;;;;5037583;28;20116;-75
2022/01/05 02:32:05;;;;;;;10.70;2.40;;;4.70;76.60;;;;;;5042561;28;20097;-75
2022/01/05 02:34:31;;;;;;;12.95;3.63;;;4.70;76.60;;;;;;5043209;28;20021;-74
2022/01/05 02:36:56;;;;;;;12.98;1.95;;;4.70;76.60;;;;;;5048592;28;20036;-75
2022/01/05 02:39:22;;;;;;;10.63;2.22;;;4.60;76.60;;;;;;5044967;28;20060;-75
2022/01/05 02:41:49;;;;;;;10.00;2.10;;;4.60;76.60;;;;;;5052740;28;20057;-75
2022/01/05 02:44:14;;;;;;;11.60;2.97;;;4.60;76.60;;;;;;5042717;28;20036;-75
2022/01/05 02:46:40;;;;;;;12.48;2.30;;;4.50;76.40;;;;;;5040503;28;20025;-75
2022/01/05 02:49:05;;;;;;;11.93;1.85;;;4.50;76.30;;;;;;5043622;28;20040;-75
2022/01/05 02:51:31;;;;;;;6.93;1.92;;;4.50;76.20;;;;;;5035145;28;20030;-75
2022/01/05 02:53:57;;;;;;;9.63;2.00;;;4.50;76.10;;;;;;5041821;28;20030;-75
2022/01/05 02:56:24;;;;;;;11.32;2.60;;;4.50;76.00;;;;;;5043667;28;20020;-75
2022/01/05 02:58:49;;;;;;;8.90;1.73;;;4.50;75.90;;;;;;5039156;28;20037;-74
2022/01/05 03:01:15;;;;;;;10.15;2.13;;;4.50;75.70;;;;;;5049499;28;20561;-74
2022/01/05 03:03:41;;;;;;;8.70;1.90;;;4.50;75.20;;;;;;5041259;28;20033;-75
2022/01/05 03:06:07;;;;;;;13.38;2.28;;;4.50;75.40;;;;;;5046188;28;20040;-75
2022/01/05 03:08:32;;;;;;;18.55;3.92;;;4.50;75.30;;;;;;5047692;28;20036;-74
2022/01/05 03:10:59;;;;;;;7.35;1.67;;;4.50;75.30;;;;;;5046116;28;20509;-74
2022/01/05 03:13:25;;;;;;;11.13;1.88;;;4.50;75.20;;;;;;5047067;28;20084;-74
2022/01/05 03:15:52;;;;;;;12.95;2.33;;;4.50;75.10;;;;;;5047719;28;20053;-74
2022/01/05 03:18:18;;;;;;;12.75;2.15;;;4.50;74.90;;;;;;5049229;28;20056;-74
2022/01/05 03:20:46;;;;;;;10.18;2.35;;;4.50;74.60;;;;;;5053067;28;20056;-74
2022/01/05 03:23:12;;;;;;;10.88;1.80;;;4.50;74.30;;;;;;5049584;28;20025;-74
2022/01/05 03:25:39;;;;;;;17.00;2.50;;;4.50;74.40;;;;;;5053767;28;20040;-74
2022/01/05 03:28:04;;;;;;;9.93;2.25;;;4.50;74.40;;;;;;5038386;28;20049;-74
2022/01/05 03:30:33;;;;;;;15.25;1.75;;;4.50;74.20;;;;;;5052296;28;20114;-75
2022/01/05 03:35:29;;;;;;;9.30;1.73;;;4.40;74.50;;;;;;5035433;28;20437;-73
2022/01/05 03:37:56;;;;;;;10.63;2.30;;;4.40;74.50;;;;;;5049130;28;20079;-74
2022/01/05 03:40:22;;;;;;;10.52;2.13;;;4.40;74.80;;;;;;5039556;28;20396;-74
2022/01/05 03:42:48;;;;;;;12.50;2.97;;;4.40;74.80;;;;;;5051776;28;20036;-74
2022/01/05 03:45:14;;;;;;;13.93;2.13;;;4.40;74.80;;;;;;5043978;28;20392;-74
2022/01/05 03:47:40;;;;;;;12.88;2.58;;;4.40;74.60;;;;;;5044925;28;20029;-74
2022/01/05 03:50:06;;;;;;;10.77;2.20;;;4.40;74.30;;;;;;5049284;28;20048;-74
2022/01/05 03:52:32;;;;;;;8.98;1.65;;;4.40;74.20;;;;;;5039740;28;20029;-74
2022/01/05 03:54:58;;;;;;;11.60;2.05;;;4.40;74.40;;;;;;5027865;28;20069;-74
2022/01/05 03:57:25;;;;;;;9.75;2.10;;;4.40;74.40;;;;;;5046066;28;20374;-74
2022/01/05 03:59:51;;;;;;;15.50;2.22;;;4.30;74.50;;;;;;5058954;28;20507;-74
2022/01/05 04:02:17;;;;;;;9.48;2.40;;;4.30;74.70;;;;;;5035228;28;20040;-74
2022/01/05 04:04:43;;;;;;;8.38;2.30;;;4.30;74.90;;;;;;5043873;28;20041;-74
2022/01/05 04:07:13;;;;;;;7.95;2.20;;;4.30;75.00;;;;;;5044765;28;20029;-74
2022/01/05 04:09:38;;;;;;;11.80;2.00;;;4.30;75.00;;;;;;5042937;28;20037;-74
2022/01/05 04:12:05;;;;;;;15.20;2.72;;;4.30;75.00;;;;;;5044644;28;20049;-74
2022/01/05 04:14:30;;;;;;;14.70;2.00;;;4.30;75.10;;;;;;5042607;28;20072;-74
2022/01/05 04:16:56;;;;;;;10.95;2.20;;;4.20;75.30;;;;;;5048866;28;20064;-75
2022/01/05 04:19:23;;;;;;;10.07;1.90;;;4.20;75.50;;;;;;5038149;28;20041;-74
2022/01/05 04:21:49;;;;;;;11.82;3.38;;;4.20;76.10;;;;;;5046708;28;20087;-74
2022/01/05 04:24:15;;;;;;;15.85;4.13;;;4.20;75.60;;;;;;5043945;28;20021;-75
2022/01/05 04:26:40;;;;;;;13.35;3.17;;;4.20;75.60;;;;;;5042949;28;20036;-75
2022/01/05 04:29:06;;;;;;;17.65;2.45;;;4.20;75.70;;;;;;5046951;28;20037;-75
2022/01/05 04:31:32;;;;;;;9.68;2.10;;;4.20;75.80;;;;;;5050547;28;20033;-75
2022/01/05 04:33:57;;;;;;;15.75;2.45;;;4.20;76.00;;;;;;5043235;28;20039;-75
2022/01/05 04:36:23;;;;;;;15.32;1.92;;;4.20;76.10;;;;;;5039671;28;20116;-75
2022/01/05 04:38:48;;;;;;;13.40;2.30;;;4.20;76.30;;;;;;5039388;28;20025;-74
2022/01/05 04:41:14;;;;;;;11.65;2.20;;;4.20;76.40;;;;;;5041876;28;20025;-74
2022/01/05 04:43:40;;;;;;;13.18;2.38;;;4.20;76.70;;;;;;5043840;28;20041;-74
2022/01/05 04:46:05;;;;;;;11.93;2.38;;;4.20;76.80;;;;;;5036462;28;20032;-74
2022/01/05 04:48:31;;;;;;;17.75;2.30;;;4.20;76.80;;;;;;5045702;28;20114;-74
2022/01/05 04:50:57;;;;;;;12.65;2.60;;;4.20;77.00;;;;;;5041139;28;20168;-75
2022/01/05 04:53:23;;;;;;;20.20;3.60;;;4.20;77.00;;;;;;5043839;28;20515;-75
2022/01/05 04:55:48;;;;;;;8.35;2.22;;;4.20;77.10;;;;;;5040650;28;20025;-75
2022/01/05 04:58:14;;;;;;;13.50;2.53;;;4.20;77.10;;;;;;5049520;28;20166;-74
2022/01/05 05:00:40;;;;;;;13.68;2.55;;;4.20;77.10;;;;;;5051565;28;20025;-74
2022/01/05 05:03:05;;;;;;;10.75;2.45;;;4.30;77.20;;;;;;5045055;28;20029;-74
2022/01/05 05:05:31;;;;;;;12.27;2.60;;;4.20;77.10;;;;;;5046011;28;20029;-74
2022/01/05 05:08:00;;;;;;;11.18;2.65;;;4.30;77.10;;;;;;5050428;28;20082;-74
2022/01/05 05:10:25;;;;;;;10.55;2.55;;;4.30;77.20;;;;;;5047382;28;20199;-74
2022/01/05 05:12:51;;;;;;;16.10;3.65;;;4.30;77.40;;;;;;5030960;28;20140;-74
2022/01/05 05:15:17;;;;;;;16.98;2.90;;;4.30;77.50;;;;;;5043842;28;20133;-76
2022/01/05 05:17:43;;;;;;;20.45;3.35;;;4.30;77.80;;;;;;5036567;28;20026;-76
2022/01/05 05:20:09;;;;;;;14.30;2.67;;;4.30;77.90;;;;;;5030757;28;20040;-75
2022/01/05 05:22:35;;;;;;;12.50;2.33;;;4.20;78.00;;;;;;5034940;28;20116;-76
2022/01/05 05:25:02;;;;;;;13.68;2.88;;;4.20;78.20;;;;;;5035886;28;20114;-76
2022/01/05 05:27:28;;;;;;;9.93;2.20;;;4.20;78.30;;;;;;5038163;28;20022;-76
2022/01/05 05:29:54;;;;;;;17.40;2.65;;;4.30;78.30;;;;;;5034873;28;20133;-76
2022/01/05 05:32:19;;;;;;;12.80;3.00;;;4.20;78.40;;;;;;5035062;28;20068;-76
2022/01/05 05:34:45;;;;;;;10.68;2.45;;;4.30;78.40;;;;;;5034864;28;20025;-76
2022/01/05 05:37:11;;;;;;;12.85;3.00;;;4.30;78.50;;;;;;5034952;28;20024;-75
2022/01/05 05:39:37;;;;;;;12.55;2.15;;;4.30;78.60;;;;;;5036223;28;20037;-75
2022/01/05 05:42:03;;;;;;;11.88;2.70;;;4.30;78.70;;;;;;5034424;28;20102;-76
2022/01/05 05:44:29;;;;;;;16.25;4.05;;;4.30;78.70;;;;;;5065854;28;20098;-75
2022/01/05 05:46:54;;;;;;;12.75;2.72;;;4.30;78.80;;;;;;5065928;28;20021;-75
2022/01/05 05:49:20;;;;;;;12.55;2.63;;;4.40;78.90;;;;;;5033802;28;20026;-75
2022/01/05 05:51:46;;;;;;;19.13;2.75;;;4.40;78.90;;;;;;5033842;28;20033;-76
2022/01/05 05:54:11;;;;;;;18.95;3.10;;;4.40;79.00;;;;;;5049181;28;20022;-76
2022/01/05 05:56:37;;;;;;;15.27;2.70;;;4.40;79.00;;;;;;5034367;28;20038;-75
2022/01/05 05:59:03;;;;;;;15.77;3.65;;;4.50;79.00;;;;;;5066456;28;20112;-76
2022/01/05 06:01:29;;;;;;;19.95;2.67;;;4.50;79.00;;;;;;5034539;28;20021;-75
2022/01/05 06:03:55;;;;;;;18.63;2.67;;;4.50;79.20;;;;;;5033086;28;20033;-76
2022/01/05 06:06:21;;;;;;;15.60;3.15;;;4.50;79.20;;;;;;5033623;28;20038;-76
2022/01/05 06:08:46;;;;;;;16.45;3.47;;;4.50;79.30;;;;;;5033999;28;20447;-74
2022/01/05 06:11:12;;;;;;;16.45;2.78;;;4.50;79.50;;;;;;5033346;28;20111;-75
2022/01/05 06:13:38;;;;;;;14.80;4.68;;;4.50;79.60;;;;;;5033734;28;20029;-75
2022/01/05 06:16:04;;;;;;;16.27;2.40;;;4.50;79.60;;;;;;5033426;28;20040;-74
2022/01/05 06:18:29;;;;;;;15.15;3.55;;;4.50;79.70;;;;;;5034706;28;20036;-76
2022/01/05 06:20:55;;;;;;;11.35;2.47;;;4.50;79.90;;;;;;5048812;28;20053;-76
2022/01/05 06:23:21;;;;;;;16.25;3.42;;;4.50;79.90;;;;;;5050928;28;20128;-72
2022/01/05 06:25:46;;;;;;;11.57;2.47;;;4.60;80.10;;;;;;5033235;28;20091;-77
2022/01/05 06:28:12;;;;;;;12.75;2.60;;;4.60;80.20;;;;;;5033523;28;20443;-76
2022/01/05 06:30:41;;;;;;;9.75;2.70;;;4.60;80.20;;;;;;5033430;28;20041;-76
2022/01/05 06:33:08;;;;;;;15.88;3.60;;;4.60;80.40;;;;;;5033207;28;20032;-76
2022/01/05 06:35:33;;;;;;;15.00;2.95;;;4.60;80.30;;;;;;5033005;28;20018;-77
2022/01/05 06:38:00;;;;;;;18.88;3.22;;;4.70;80.40;;;;;;5033068;28;20101;-77
2022/01/05 06:40:26;;;;;;;17.60;2.83;;;4.70;80.20;;;;;;5033329;28;20472;-76
2022/01/05 06:42:52;;;;;;;12.93;2.22;;;4.70;80.10;;;;;;5015313;28;20029;-75
2022/01/05 06:45:17;;;;;;;16.27;2.70;;;4.70;80.20;;;;;;5031937;28;20038;-77
2022/01/05 06:47:43;;;;;;;19.33;3.55;;;4.70;80.20;;;;;;5031702;28;20017;-77
2022/01/05 06:50:10;;;;;;;13.55;2.60;;;4.70;80.00;;;;;;5031795;28;20071;-76
2022/01/05 06:52:36;;;;;;;12.40;2.60;;;4.70;80.20;;;;;;5032005;28;20492;-77
2022/01/05 06:55:03;;;;;;;17.92;2.95;;;4.70;80.10;;;;;;5051565;28;20033;-77
2022/01/05 06:57:29;;;;;;;8.80;2.97;;;4.80;79.80;;;;;;5052991;28;20021;-76
2022/01/05 06:59:55;;;;;;;14.57;2.70;;;4.80;79.80;;;;;;5052919;28;20109;-77
2022/01/05 07:02:21;;;;;;;15.13;2.53;;;4.80;79.80;;;;;;5051430;28;20100;-77
2022/01/05 07:04:47;;;;;;;13.00;2.80;;;4.80;79.60;;;;;;5052635;28;20392;-77
2022/01/05 07:07:12;;;;;;;11.20;2.35;;;4.80;79.60;;;;;;5052771;28;20112;-77
2022/01/05 07:09:38;;;;;;;18.38;2.88;;;4.90;79.80;;;;;;5051727;28;20056;-77
2022/01/05 07:12:04;;;;;;;12.50;2.50;;;4.90;80.00;;;;;;5052402;28;20124;-77
2022/01/05 07:14:30;;;;;;;13.32;2.72;;;4.90;80.30;;;;;;5051270;28;20061;-76
2022/01/05 07:16:55;;;;;;;14.57;3.42;;;4.80;80.50;;;;;;5051139;28;20067;-78
2022/01/05 07:19:21;;;;;;;17.40;2.58;;;4.80;80.40;;;;;;5052764;28;20112;-78
2022/01/05 07:21:48;;;;;;;12.40;2.78;;;4.80;80.50;;;;;;5051450;28;20075;-78
2022/01/05 07:24:17;;;;;;;18.40;4.10;;;4.80;80.60;;;;;;5055934;28;20064;-78
2022/01/05 07:26:44;;;;;;;15.07;3.42;;;4.80;80.40;;;;;;5055008;28;20021;-78
2022/01/05 07:29:11;;;;;;;16.63;2.63;;;4.90;80.50;;;;;;5056410;28;20036;-77
2022/01/05 07:31:37;;;;;;;13.32;2.50;;;4.90;80.40;;;;;;5055264;28;20357;-78
2022/01/05 07:34:02;;;;;;;15.18;2.80;;;4.90;80.30;;;;;;5055183;28;20032;-77
2022/01/05 07:36:28;;;;;;;17.63;5.07;;;4.90;80.30;;;;;;5054959;28;20025;-78
2022/01/05 07:38:54;;;;;;;16.45;3.42;;;4.90;80.30;;;;;;5056280;28;20106;-78
2022/01/05 07:41:19;;;;;;;13.02;3.17;;;4.90;80.20;;;;;;5055125;28;20492;-77
2022/01/05 07:43:45;;;;;;;17.35;2.95;;;5.00;80.10;;;;;;5055816;28;20029;-77
2022/01/05 07:46:11;;;;;;;13.38;2.95;;;5.00;80.10;;;;;;5055868;28;20025;-77
2022/01/05 07:48:36;;;;;;;17.20;2.60;;;5.00;80.10;;;;;;5055767;28;20448;-77
2022/01/05 07:51:02;;;;;;;17.52;2.95;;;5.00;80.10;;;;;;5055803;28;20026;-78
2022/01/05 07:53:28;;;;;;;12.43;2.83;;;5.00;80.00;;;;;;5054589;28;20065;-78
2022/01/05 07:55:53;;;;;;;16.17;2.70;;;5.00;80.10;;;;;;5054694;28;20480;-77
2022/01/05 07:58:21;;;;;;;12.38;2.65;;;5.00;80.20;;;;;;5056257;28;20029;-78
2022/01/05 08:00:47;;;;;;;20.10;3.22;;;5.00;80.20;;;;;;5056062;28;20029;-76
2022/01/05 08:03:12;;;;;;;22.02;3.90;;;5.10;80.50;;;;;;5050946;28;20036;-73
2022/01/05 08:05:38;;;;;;;13.90;2.70;;;5.00;80.50;;;;;;5030751;28;20386;-73
2022/01/05 08:08:04;;;;;;;18.23;2.80;;;5.10;80.60;;;;;;5051616;28;20086;-73
2022/01/05 08:10:30;;;;;;;19.38;2.95;;;5.10;80.70;;;;;;5045177;28;20449;-73
2022/01/05 08:12:55;;;;;;;13.57;2.90;;;5.10;80.90;;;;;;5049912;28;20049;-73
2022/01/05 08:15:21;;;;;;;20.75;3.13;;;5.10;81.20;;;;;;5045104;28;20053;-73
2022/01/05 08:17:47;;;;;;;15.02;2.83;;;5.10;81.50;;;;;;5050980;28;20111;-74
2022/01/05 08:20:13;;;;;;;12.60;2.78;;;5.20;82.40;;;;;;5056563;28;20028;-74
2022/01/05 08:22:41;;;;;;;18.27;3.20;;;5.10;82.20;;;;;;5051883;28;20029;-74
2022/01/05 08:25:12;;;;;;;17.25;2.60;;;5.10;83.00;;;;;;5039093;28;20131;-74
2022/01/05 08:27:45;;;;;;;19.23;3.40;;;5.10;83.10;;;;;;5046908;28;20033;-74
2022/01/05 08:30:16;;;;;;;17.75;3.17;;;5.10;83.50;;;;;;5044542;28;20107;-73
2022/01/05 08:32:43;;;;;;;17.95;3.20;;;5.10;83.80;;;;;;5050586;28;20480;-73
2022/01/05 08:35:10;;;;;;;15.40;3.25;;;5.10;84.40;;;;;;5035453;28;20017;-73
2022/01/05 08:37:36;;;;;;;19.52;2.92;;;5.00;84.70;;;;;;5030460;28;20393;-73
2022/01/05 08:40:03;;;;;;;16.13;2.88;;;5.00;84.80;;;;;;5040384;28;20044;-73
2022/01/05 08:42:29;;;;;;;19.35;3.30;;;5.00;85.00;;;;;;5051180;28;20122;-73
2022/01/05 08:44:55;;;;;;;23.98;4.28;;;5.00;85.20;;;;;;5040984;28;20061;-73
2022/01/05 08:47:20;;;;;;;16.73;3.25;;;5.10;85.50;;;;;;5047655;28;20057;-73
2022/01/05 08:49:46;;;;;;;21.27;3.97;;;5.10;85.50;;;;;;5046382;28;20491;-73
2022/01/05 08:52:12;;;;;;;23.95;4.28;;;5.10;85.60;;;;;;5040566;28;20044;-73
2022/01/05 08:54:37;;;;;;;18.52;4.03;;;5.10;85.90;;;;;;5041265;28;20028;-73
2022/01/05 08:57:04;;;;;;;18.30;3.33;;;5.10;85.90;;;;;;5048704;28;20021;-73
2022/01/05 08:59:30;;;;;;;14.02;3.50;;;5.10;85.90;;;;;;5049423;28;20040;-73
2022/01/05 09:01:55;;;;;;;16.83;3.10;;;5.10;86.00;;;;;;5049791;28;20036;-74
2022/01/05 09:04:22;;;;;;;22.98;3.22;;;5.10;86.20;;;;;;5059907;28;20469;-73
2022/01/05 09:06:47;;;;;;;21.35;3.38;;;5.00;86.40;;;;;;5049701;28;20093;-73
2022/01/05 09:09:13;;;;;;;13.80;3.08;;;5.00;86.50;;;;;;5047784;28;20025;-73
2022/01/05 09:11:39;;;;;;;19.17;3.72;;;5.00;86.70;;;;;;5032337;28;20055;-73
2022/01/05 09:14:04;;;;;;;15.05;2.65;;;5.00;86.70;;;;;;5047568;28;20086;-73
2022/01/05 09:16:30;;;;;;;17.70;3.13;;;5.00;86.90;;;;;;5047372;28;20391;-73
2022/01/05 09:18:56;;;;;;;14.15;3.40;;;5.00;87.00;;;;;;5046163;28;20143;-73
2022/01/05 09:21:21;;;;;;;17.85;3.92;;;5.00;87.20;;;;;;5048853;28;20043;-73
2022/01/05 09:23:47;;;;;;;12.70;3.20;;;5.00;87.40;;;;;;5049367;28;20037;-73
2022/01/05 09:26:12;;;;;;;15.80;3.30;;;5.00;87.80;;;;;;5035248;28;20488;-73
2022/01/05 09:28:43;;;;;;;20.95;3.15;;;5.00;87.80;;;;;;5048992;28;20040;-73
2022/01/05 09:31:09;;;;;;;15.45;3.13;;;5.00;87.80;;;;;;5033466;23;20111;-90
2022/01/05 09:33:35;;;;;;;19.63;3.25;;;5.00;88.00;;;;;;4993267;28;20023;-89
2022/01/05 09:36:08;;;;;;;19.10;3.65;;;5.00;88.10;;;;;;4998349;28;20018;-90
2022/01/05 09:41:56;;;;;;;;;;;5.00;88.30;;;;;;4997783;28;20052;-90
2022/01/05 09:44:20;;;;;;;19.35;3.22;;;5.00;88.70;;;;;;5014106;28;20044;-90
2022/01/05 09:47:06;;;;;;;13.30;2.55;;;5.00;89.00;;;;;;5011791;28;20489;-90
2022/01/05 09:49:32;;;;;;;14.80;3.03;;;5.10;89.10;;;;;;4982572;28;20034;-89
2022/01/05 09:52:02;;;;;;;17.15;2.92;;;5.10;89.10;;;;;;5012421;28;20033;-90
2022/01/05 09:54:28;;;;;;;14.55;2.75;;;5.10;89.30;;;;;;5011931;28;20084;-90
2022/01/05 09:56:54;;;;;;;15.82;3.25;;;5.10;89.40;;;;;;5010432;28;20101;-90
2022/01/05 09:59:20;;;;;;;19.15;3.33;;;5.20;89.40;;;;;;4993804;28;20168;-90
2022/01/05 10:01:46;;;;;;;15.25;2.97;;;5.20;89.40;;;;;;5012313;28;20061;-90
2022/01/05 10:04:14;;;;;;;14.43;2.72;;;5.20;89.60;;;;;;4996395;28;20026;-89
2022/01/05 10:06:40;;;;;;;14.05;2.63;;;5.20;89.70;;;;;;5013460;28;20034;-90
2022/01/05 10:09:06;;;;;;;9.95;2.40;;;5.20;89.80;;;;;;4993946;28;20030;-90
2022/01/05 10:11:32;;;;;;;19.20;3.28;;;5.20;89.90;;;;;;5011399;28;20100;-90
2022/01/05 10:13:58;;;;;;;17.65;3.13;;;5.20;90.00;;;;;;4993003;28;20112;-89
2022/01/05 10:16:24;;;;;;;18.10;3.28;;;5.20;90.00;;;;;;5011806;28;20038;-90
2022/01/05 10:18:49;;;;;;;13.13;2.72;;;5.30;90.00;;;;;;4995854;28;20405;-90
2022/01/05 10:21:15;;;;;;;18.63;3.50;;;5.30;90.00;;;;;;5024362;28;20030;-90
2022/01/05 10:23:51;;;;;;;15.63;2.83;;;5.30;90.10;;;;;;4995755;28;20026;-89
2022/01/05 10:26:39;;;;;;;20.00;3.28;;;5.30;90.10;;;;;;5016397;28;20044;-90
2022/01/05 10:29:16;;;;;;;21.77;3.95;;;5.40;90.10;;;;;;5011817;28;20037;-89
2022/01/05 10:31:44;;;;;;;16.55;3.25;;;5.40;90.20;;;;;;5019811;28;20452;-89
2022/01/05 10:34:19;;;;;;;16.63;2.80;;;5.40;90.20;;;;;;5010618;28;20045;-91
2022/01/05 10:36:55;;;;;;;16.75;2.95;;;5.40;90.40;;;;;;5028888;28;20030;-91
2022/01/05 10:39:31;;;;;;;18.02;3.30;;;5.40;90.40;;;;;;5013130;28;20030;-87
2022/01/05 10:42:02;;;;;;;21.95;2.78;;;5.50;90.50;;;;;;5011417;28;20022;-87
2022/01/05 10:44:28;;;;;;;15.93;2.92;;;5.50;90.50;;;;;;5008441;28;20634;-89
2022/01/05 10:46:56;;;;;;;14.50;2.80;;;5.50;90.60;;;;;;5012081;28;20030;-89
2022/01/05 10:49:32;;;;;;;18.52;2.70;;;5.50;90.60;;;;;;5027924;28;20026;-90
2022/01/05 10:52:18;;;;;;;20.52;3.70;;;5.50;90.70;;;;;;5028190;28;20121;-89
2022/01/05 10:54:44;;;;;;;20.67;3.00;;;5.50;90.80;;;;;;5006134;28;20084;-89
2022/01/05 10:57:12;;;;;;;17.38;3.55;;;5.50;90.70;;;;;;4996519;28;20026;-89
2022/01/05 10:59:42;;;;;;;23.55;4.07;;;5.60;90.80;;;;;;4995850;28;20030;-89
2022/01/05 11:02:30;;;;;;;19.40;3.10;;;5.60;90.80;;;;;;5010734;28;20045;-89
2022/01/05 11:05:12;;;;;;;20.92;3.72;;;5.70;90.80;;;;;;5009575;28;20022;-88
2022/01/05 11:07:39;;;;;;;20.70;3.83;;;5.70;90.80;;;;;;5010007;28;20030;-89
2022/01/05 11:10:12;;;;;;;22.77;3.88;;;5.70;90.80;;;;;;5004923;28;20073;-89
2022/01/05 11:12:38;;;;;;;22.75;3.80;;;5.80;90.80;;;;;;5009764;28;20014;-89
2022/01/05 11:15:30;;;;;;;20.77;3.22;;;5.80;90.80;;;;;;5017224;28;20537;-89
2022/01/05 11:18:12;;;;;;;21.23;3.65;;;5.80;90.80;;;;;;5015502;28;20128;-89
2022/01/05 11:20:51;;;;;;;18.33;3.25;;;5.80;90.80;;;;;;5010512;28;20023;-88
2022/01/05 11:23:20;;;;;;;21.75;3.95;;;5.90;90.90;;;;;;5019900;28;20026;-88
2022/01/05 11:26:07;;;;;;;15.25;3.38;;;6.00;90.90;;;;;;5015075;28;20116;-88
2022/01/05 11:28:33;;;;;;;13.52;2.65;;;6.10;90.80;;;;;;4985168;28;20061;-87
2022/01/05 11:31:07;;;;;;;13.02;2.20;;;6.10;91.00;;;;;;5014573;28;20118;-89
2022/01/05 11:33:34;;;;;;;15.23;3.10;;;6.20;90.60;;;;;;4982238;28;20030;-89
2022/01/05 11:35:59;;;;;;;15.52;2.95;;;6.20;90.50;;;;;;4999175;28;20033;-87
2022/01/05 11:38:25;;;;;;;15.18;2.42;;;6.30;90.40;;;;;;5026394;28;20033;-88
2022/01/05 11:40:54;;;;;;;14.45;2.50;;;6.30;90.30;;;;;;5013254;28;20030;-89
2022/01/05 11:43:33;;;;;;;17.02;2.50;;;6.20;90.30;;;;;;5010730;28;20069;-88
2022/01/05 11:46:16;;;;;;;12.15;2.50;;;6.20;90.40;;;;;;5014520;28;20022;-89
2022/01/05 11:49:02;;;;;;;16.13;2.60;;;6.20;90.40;;;;;;5014822;28;20147;-90
2022/01/05 11:51:52;;;;;;;14.98;2.22;;;6.20;90.50;;;;;;5024677;28;20022;-89
2022/01/05 11:54:25;;;;;;;17.35;2.97;;;6.20;90.40;;;;;;5023611;28;20292;-89
2022/01/05 11:56:54;;;;;;;12.02;2.13;;;6.30;90.40;;;;;;5026767;28;20576;-88
2022/01/05 11:59:37;;;;;;;13.50;2.50;;;6.30;90.40;;;;;;5013601;28;20121;-88
2022/01/05 12:02:12;;;;;;;12.80;2.40;;;6.30;90.30;;;;;;5029673;28;20704;-88
2022/01/05 12:04:56;;;;;;;9.40;2.00;;;6.30;90.30;;;;;;4994971;28;20030;-90
2022/01/05 12:07:46;;;;;;;15.05;2.30;;;6.30;90.20;;;;;;5011764;28;20026;-89
2022/01/05 12:10:21;;;;;;;10.95;2.10;;;6.30;90.20;;;;;;5030662;28;20022;-89
2022/01/05 12:13:04;;;;;;;11.57;1.80;;;6.30;90.30;;;;;;5013818;28;20062;-89
2022/01/05 12:15:40;;;;;;;15.52;2.28;;;6.30;90.30;;;;;;4989855;28;20041;-89
2022/01/05 12:18:06;;;;;;;18.20;3.03;;;6.30;90.30;;;;;;5028668;28;20455;-89
2022/01/05 12:20:34;;;;;;;12.02;2.08;;;6.40;90.40;;;;;;5002740;28;20038;-91
2022/01/05 12:23:25;;;;;;;21.10;3.83;;;6.40;90.40;;;;;;5010194;28;20056;-89
2022/01/05 12:26:07;;;;;;;17.77;3.00;;;6.40;90.50;;;;;;5013488;28;20079;-90
2022/01/05 12:28:36;;;;;;;17.20;2.63;;;6.40;90.50;;;;;;5013884;28;20036;-91
2022/01/05 12:31:04;;;;;;;20.25;4.43;;;6.40;90.50;;;;;;5016513;28;20084;-91
2022/01/05 12:33:49;;;;;;;17.17;3.42;;;6.50;90.60;;;;;;5015150;28;20022;-91
2022/01/05 12:36:34;;;;;;;23.40;3.53;;;6.50;90.60;;;;;;5021726;28;20114;-91
2022/01/05 12:39:01;;;;;;;20.40;3.60;;;6.50;90.60;;;;;;5032317;28;20024;-89
2022/01/05 12:41:39;;;;;;;24.02;3.58;;;6.60;90.60;;;;;;4979247;28;20119;-90
2022/01/05 12:44:26;;;;;;;22.73;3.22;;;6.60;90.60;;;;;;5013249;28;20030;-89
2022/01/05 12:46:53;;;;;;;20.38;3.90;;;6.60;90.60;;;;;;4999440;28;20481;-89
2022/01/05 12:49:23;;;;;;;16.77;2.90;;;6.60;90.60;;;;;;5013009;28;20030;-89
2022/01/05 12:51:50;;;;;;;24.50;3.80;;;6.60;90.70;;;;;;5023111;28;20023;-90
2022/01/05 12:54:21;;;;;;;17.85;3.10;;;6.60;90.70;;;;;;5007286;28;20026;-90
2022/01/05 12:57:04;;;;;;;21.95;3.08;;;6.70;90.70;;;;;;5014195;28;20117;-89